sensor_id;sensor_type;location;lat;lon;timestamp;temperature;humidity
22161;DHT22;49035;48.812;11.762;2022-12-07T00:01:13;2.40;99.90
22161;DHT22;49035;48.812;11.762;2022-12-07T00:03:40;2.40;99.90
22161;DHT22;49035;48.812;11.762;2022-12-07T00:06:08;2.30;99.90
22161;DHT22;49035;48.812;11.762;2022-12-07T00:08:34;2.30;99.90
22161;DHT22;49035;48.812;11.762;2022-12-07T00:11:08;2.30;99.90
22161;DHT22;49035;48.812;11.762;2022-12-07T00:13:35;2.30;99.90
22161;DHT22;49035;48.812;11.762;2022-12-07T00:16:06;2.30;99.90
22161;DHT22;49035;48.812;11.762;2022-12-07T00:18:33;2.30;99.90
22161;DHT22;49035;48.812;11.762;2022-12-07T00:21:10;2.30;99.90
22161;DHT22;49035;48.812;11.762;2022-12-07T00:23:36;2.20;99.90
22161;DHT22;49035;48.812;11.762;2022-12-07T00:26:08;2.20;99.90
22161;DHT22;49035;48.812;11.762;2022-12-07T00:28:34;2.20;99.90
22161;DHT22;49035;48.812;11.762;2022-12-07T00:31:11;2.10;99.90
22161;DHT22;49035;48.812;11.762;2022-12-07T00:33:38;2.10;99.90
22161;DHT22;49035;48.812;11.762;2022-12-07T00:36:07;2.10;99.90
22161;DHT22;49035;48.812;11.762;2022-12-07T00:38:34;2.10;99.90
22161;DHT22;49035;48.812;11.762;2022-12-07T00:41:06;2.10;99.90
22161;DHT22;49035;48.812;11.762;2022-12-07T00:43:32;2.00;99.90
22161;DHT22;49035;48.812;11.762;2022-12-07T00:45:58;2.00;99.90
22161;DHT22;49035;48.812;11.762;2022-12-07T00:48:24;2.00;99.90
22161;DHT22;49035;48.812;11.762;2022-12-07T00:50:50;2.00;99.90
22161;DHT22;49035;48.812;11.762;2022-12-07T00:53:16;2.00;99.90
22161;DHT22;49035;48.812;11.762;2022-12-07T00:55:42;2.00;99.90
22161;DHT22;49035;48.812;11.762;2022-12-07T00:58:08;2.00;99.90
22161;DHT22;49035;48.812;11.762;2022-12-07T01:00:36;2.00;99.90
22161;DHT22;49035;48.812;11.762;2022-12-07T01:03:03;2.00;99.90
22161;DHT22;49035;48.812;11.762;2022-12-07T01:05:28;2.00;99.90
22161;DHT22;49035;48.812;11.762;2022-12-07T01:07:54;2.10;99.90
22161;DHT22;49035;48.812;11.762;2022-12-07T01:10:20;2.10;99.90
22161;DHT22;49035;48.812;11.762;2022-12-07T01:12:45;2.10;99.90
22161;DHT22;49035;48.812;11.762;2022-12-07T01:15:11;2.00;99.90
22161;DHT22;49035;48.812;11.762;2022-12-07T01:17:37;2.10;99.90
22161;DHT22;49035;48.812;11.762;2022-12-07T01:20:03;2.20;99.90
22161;DHT22;49035;48.812;11.762;2022-12-07T01:22:29;2.10;99.90
22161;DHT22;49035;48.812;11.762;2022-12-07T01:24:54;2.10;99.90
22161;DHT22;49035;48.812;11.762;2022-12-07T01:27:20;2.10;99.90
22161;DHT22;49035;48.812;11.762;2022-12-07T01:29:45;2.10;99.90
22161;DHT22;49035;48.812;11.762;2022-12-07T01:32:12;2.00;99.90
22161;DHT22;49035;48.812;11.762;2022-12-07T01:34:37;2.00;99.90
22161;DHT22;49035;48.812;11.762;2022-12-07T01:37:04;2.10;99.90
22161;DHT22;49035;48.812;11.762;2022-12-07T01:39:29;2.10;99.90
22161;DHT22;49035;48.812;11.762;2022-12-07T01:41:55;2.10;99.90
22161;DHT22;49035;48.812;11.762;2022-12-07T01:44:30;2.10;99.90
22161;DHT22;49035;48.812;11.762;2022-12-07T01:46:58;2.10;99.90
22161;DHT22;49035;48.812;11.762;2022-12-07T01:49:40;2.00;99.90
22161;DHT22;49035;48.812;11.762;2022-12-07T01:52:18;2.10;99.90
22161;DHT22;49035;48.812;11.762;2022-12-07T01:54:46;2.10;99.90
22161;DHT22;49035;48.812;11.762;2022-12-07T01:57:14;2.10;99.90
22161;DHT22;49035;48.812;11.762;2022-12-07T01:59:41;2.10;99.90
22161;DHT22;49035;48.812;11.762;2022-12-07T02:02:13;2.10;99.90
22161;DHT22;49035;48.812;11.762;2022-12-07T02:04:43;2.20;99.90
22161;DHT22;49035;48.812;11.762;2022-12-07T02:07:09;2.20;99.90
22161;DHT22;49035;48.812;11.762;2022-12-07T02:09:34;2.20;99.90
22161;DHT22;49035;48.812;11.762;2022-12-07T02:12:00;2.10;99.90
22161;DHT22;49035;48.812;11.762;2022-12-07T02:14:26;2.10;99.90
22161;DHT22;49035;48.812;11.762;2022-12-07T02:20:08;2.10;99.90
22161;DHT22;49035;48.812;11.762;2022-12-07T02:30:50;2.00;99.90
22161;DHT22;49035;48.812;11.762;2022-12-07T02:33:31;2.00;99.90
22161;DHT22;49035;48.812;11.762;2022-12-07T02:36:06;1.90;99.90
22161;DHT22;49035;48.812;11.762;2022-12-07T02:41:20;1.80;99.90
22161;DHT22;49035;48.812;11.762;2022-12-07T02:44:02;1.80;99.90
22161;DHT22;49035;48.812;11.762;2022-12-07T02:46:33;1.80;99.90
22161;DHT22;49035;48.812;11.762;2022-12-07T02:49:01;1.80;99.90
22161;DHT22;49035;48.812;11.762;2022-12-07T02:51:32;1.80;99.90
22161;DHT22;49035;48.812;11.762;2022-12-07T02:53:58;1.80;99.90
22161;DHT22;49035;48.812;11.762;2022-12-07T03:07:43;2.00;99.90
22161;DHT22;49035;48.812;11.762;2022-12-07T03:10:35;2.00;99.90
22161;DHT22;49035;48.812;11.762;2022-12-07T03:13:16;2.10;99.90
22161;DHT22;49035;48.812;11.762;2022-12-07T03:15:57;2.00;99.90
22161;DHT22;49035;48.812;11.762;2022-12-07T03:18:25;2.10;99.90
22161;DHT22;49035;48.812;11.762;2022-12-07T03:20:56;2.00;99.90
22161;DHT22;49035;48.812;11.762;2022-12-07T03:23:23;2.00;99.90
22161;DHT22;49035;48.812;11.762;2022-12-07T03:25:54;2.00;99.90
22161;DHT22;49035;48.812;11.762;2022-12-07T03:28:24;2.00;99.90
22161;DHT22;49035;48.812;11.762;2022-12-07T03:30:56;2.00;99.90
22161;DHT22;49035;48.812;11.762;2022-12-07T03:33:36;1.90;99.90
22161;DHT22;49035;48.812;11.762;2022-12-07T03:36:09;2.00;99.90
22161;DHT22;49035;48.812;11.762;2022-12-07T03:38:48;1.90;99.90
22161;DHT22;49035;48.812;11.762;2022-12-07T03:41:21;2.00;99.90
22161;DHT22;49035;48.812;11.762;2022-12-07T03:43:47;2.00;99.90
22161;DHT22;49035;48.812;11.762;2022-12-07T03:46:35;2.00;99.90
22161;DHT22;49035;48.812;11.762;2022-12-07T03:52:28;2.00;99.90
22161;DHT22;49035;48.812;11.762;2022-12-07T03:55:16;2.00;99.90
22161;DHT22;49035;48.812;11.762;2022-12-07T03:57:45;2.00;99.90
22161;DHT22;49035;48.812;11.762;2022-12-07T04:00:12;2.00;99.90
22161;DHT22;49035;48.812;11.762;2022-12-07T04:02:38;2.00;99.90
22161;DHT22;49035;48.812;11.762;2022-12-07T04:05:08;2.00;99.90
22161;DHT22;49035;48.812;11.762;2022-12-07T04:07:33;1.90;99.90
22161;DHT22;49035;48.812;11.762;2022-12-07T04:09:59;1.90;99.90
22161;DHT22;49035;48.812;11.762;2022-12-07T04:12:25;1.90;99.90
22161;DHT22;49035;48.812;11.762;2022-12-07T04:14:50;1.90;99.90
22161;DHT22;49035;48.812;11.762;2022-12-07T04:17:16;1.90;99.90
22161;DHT22;49035;48.812;11.762;2022-12-07T04:19:42;1.90;99.90
22161;DHT22;49035;48.812;11.762;2022-12-07T04:22:08;1.90;99.90
22161;DHT22;49035;48.812;11.762;2022-12-07T04:24:34;1.90;99.90
22161;DHT22;49035;48.812;11.762;2022-12-07T04:26:59;2.00;99.90
22161;DHT22;49035;48.812;11.762;2022-12-07T04:29:26;1.90;99.90
22161;DHT22;49035;48.812;11.762;2022-12-07T04:31:52;1.90;99.90
22161;DHT22;49035;48.812;11.762;2022-12-07T04:34:18;1.90;99.90
22161;DHT22;49035;48.812;11.762;2022-12-07T04:36:45;1.90;99.90
22161;DHT22;49035;48.812;11.762;2022-12-07T04:39:31;1.90;99.90
22161;DHT22;49035;48.812;11.762;2022-12-07T04:41:57;1.90;99.90
22161;DHT22;49035;48.812;11.762;2022-12-07T04:44:23;1.80;99.90
22161;DHT22;49035;48.812;11.762;2022-12-07T04:46:50;1.80;99.90
22161;DHT22;49035;48.812;11.762;2022-12-07T04:49:17;1.80;99.90
22161;DHT22;49035;48.812;11.762;2022-12-07T04:51:43;1.50;99.90
22161;DHT22;49035;48.812;11.762;2022-12-07T04:54:09;1.40;99.90
22161;DHT22;49035;48.812;11.762;2022-12-07T04:56:35;1.20;99.90
22161;DHT22;49035;48.812;11.762;2022-12-07T04:59:02;0.80;99.90
22161;DHT22;49035;48.812;11.762;2022-12-07T05:01:28;0.60;99.90
22161;DHT22;49035;48.812;11.762;2022-12-07T05:03:54;0.50;99.90
22161;DHT22;49035;48.812;11.762;2022-12-07T05:06:20;0.30;99.90
22161;DHT22;49035;48.812;11.762;2022-12-07T05:08:46;0.10;99.90
22161;DHT22;49035;48.812;11.762;2022-12-07T05:11:12;0.00;99.90
22161;DHT22;49035;48.812;11.762;2022-12-07T05:14:01;-0.10;99.90
22161;DHT22;49035;48.812;11.762;2022-12-07T05:16:27;-0.20;99.90
22161;DHT22;49035;48.812;11.762;2022-12-07T05:18:53;-0.30;99.90
22161;DHT22;49035;48.812;11.762;2022-12-07T05:21:19;-0.30;99.90
22161;DHT22;49035;48.812;11.762;2022-12-07T05:23:44;-0.40;99.90
22161;DHT22;49035;48.812;11.762;2022-12-07T05:26:10;-0.50;99.90
22161;DHT22;49035;48.812;11.762;2022-12-07T05:28:35;-0.80;99.90
22161;DHT22;49035;48.812;11.762;2022-12-07T05:31:01;-0.90;99.90
22161;DHT22;49035;48.812;11.762;2022-12-07T05:33:27;-1.00;99.90
22161;DHT22;49035;48.812;11.762;2022-12-07T05:35:52;-1.10;99.90
22161;DHT22;49035;48.812;11.762;2022-12-07T05:38:18;-1.10;99.90
22161;DHT22;49035;48.812;11.762;2022-12-07T05:40:43;-1.10;99.90
22161;DHT22;49035;48.812;11.762;2022-12-07T05:43:09;-1.10;99.90
22161;DHT22;49035;48.812;11.762;2022-12-07T05:45:35;-1.10;99.90
22161;DHT22;49035;48.812;11.762;2022-12-07T05:48:01;-1.10;99.90
22161;DHT22;49035;48.812;11.762;2022-12-07T05:50:26;-1.20;99.90
22161;DHT22;49035;48.812;11.762;2022-12-07T05:52:53;-1.20;99.90
22161;DHT22;49035;48.812;11.762;2022-12-07T05:55:19;-1.30;99.90
22161;DHT22;49035;48.812;11.762;2022-12-07T05:57:45;-1.20;99.90
22161;DHT22;49035;48.812;11.762;2022-12-07T06:00:30;-1.10;99.90
22161;DHT22;49035;48.812;11.762;2022-12-07T06:02:56;-0.90;99.90
22161;DHT22;49035;48.812;11.762;2022-12-07T06:05:22;-0.70;99.90
22161;DHT22;49035;48.812;11.762;2022-12-07T06:07:47;-0.70;99.90
22161;DHT22;49035;48.812;11.762;2022-12-07T06:10:13;-0.80;99.90
22161;DHT22;49035;48.812;11.762;2022-12-07T06:12:39;-0.90;99.90
22161;DHT22;49035;48.812;11.762;2022-12-07T06:15:08;-1.00;99.90
22161;DHT22;49035;48.812;11.762;2022-12-07T06:17:34;-1.00;99.90
22161;DHT22;49035;48.812;11.762;2022-12-07T06:20:00;-1.00;99.90
22161;DHT22;49035;48.812;11.762;2022-12-07T06:22:25;-1.20;99.90
22161;DHT22;49035;48.812;11.762;2022-12-07T06:24:51;-1.30;99.90
22161;DHT22;49035;48.812;11.762;2022-12-07T06:27:16;-1.40;99.90
22161;DHT22;49035;48.812;11.762;2022-12-07T06:29:42;-1.40;99.90
22161;DHT22;49035;48.812;11.762;2022-12-07T06:32:08;-1.30;99.90
22161;DHT22;49035;48.812;11.762;2022-12-07T06:34:34;-1.30;99.90
22161;DHT22;49035;48.812;11.762;2022-12-07T06:37:00;-1.20;99.90
22161;DHT22;49035;48.812;11.762;2022-12-07T06:39:27;-1.30;99.90
22161;DHT22;49035;48.812;11.762;2022-12-07T06:41:53;-1.30;99.90
22161;DHT22;49035;48.812;11.762;2022-12-07T06:44:20;-1.50;99.90
22161;DHT22;49035;48.812;11.762;2022-12-07T06:46:47;-1.50;99.90
22161;DHT22;49035;48.812;11.762;2022-12-07T06:49:13;-1.50;99.90
22161;DHT22;49035;48.812;11.762;2022-12-07T06:51:38;-1.50;99.90
22161;DHT22;49035;48.812;11.762;2022-12-07T06:54:08;-1.40;99.90
22161;DHT22;49035;48.812;11.762;2022-12-07T06:56:33;-1.40;99.90
22161;DHT22;49035;48.812;11.762;2022-12-07T06:58:59;-1.40;99.90
22161;DHT22;49035;48.812;11.762;2022-12-07T07:01:25;-1.40;99.90
22161;DHT22;49035;48.812;11.762;2022-12-07T07:03:50;-1.60;99.90
22161;DHT22;49035;48.812;11.762;2022-12-07T07:06:16;-1.80;99.90
22161;DHT22;49035;48.812;11.762;2022-12-07T07:08:41;-1.90;99.90
22161;DHT22;49035;48.812;11.762;2022-12-07T07:11:08;-2.00;99.90
22161;DHT22;49035;48.812;11.762;2022-12-07T07:13:34;-2.00;99.90
22161;DHT22;49035;48.812;11.762;2022-12-07T07:16:00;-2.00;99.90
22161;DHT22;49035;48.812;11.762;2022-12-07T07:18:26;-1.90;99.90
22161;DHT22;49035;48.812;11.762;2022-12-07T07:20:52;-1.80;99.90
22161;DHT22;49035;48.812;11.762;2022-12-07T07:23:19;-1.60;99.90
22161;DHT22;49035;48.812;11.762;2022-12-07T07:25:45;-1.40;99.90
22161;DHT22;49035;48.812;11.762;2022-12-07T07:28:11;-1.20;99.90
22161;DHT22;49035;48.812;11.762;2022-12-07T07:30:37;-1.10;99.90
22161;DHT22;49035;48.812;11.762;2022-12-07T07:33:04;-0.90;99.90
22161;DHT22;49035;48.812;11.762;2022-12-07T07:35:31;-0.80;99.90
22161;DHT22;49035;48.812;11.762;2022-12-07T07:37:57;-0.70;99.90
22161;DHT22;49035;48.812;11.762;2022-12-07T07:40:24;-0.60;99.90
22161;DHT22;49035;48.812;11.762;2022-12-07T07:42:51;-0.40;99.90
22161;DHT22;49035;48.812;11.762;2022-12-07T07:45:18;-0.30;99.90
22161;DHT22;49035;48.812;11.762;2022-12-07T07:47:44;-0.20;99.90
22161;DHT22;49035;48.812;11.762;2022-12-07T07:50:10;-0.10;99.90
22161;DHT22;49035;48.812;11.762;2022-12-07T07:52:36;0.00;99.90
22161;DHT22;49035;48.812;11.762;2022-12-07T07:55:01;0.10;99.90
22161;DHT22;49035;48.812;11.762;2022-12-07T07:57:28;0.20;99.90
22161;DHT22;49035;48.812;11.762;2022-12-07T07:59:53;0.20;99.90
22161;DHT22;49035;48.812;11.762;2022-12-07T08:02:20;0.10;99.90
22161;DHT22;49035;48.812;11.762;2022-12-07T08:04:46;0.30;99.90
22161;DHT22;49035;48.812;11.762;2022-12-07T08:07:12;0.20;99.90
22161;DHT22;49035;48.812;11.762;2022-12-07T08:09:38;0.30;99.90
22161;DHT22;49035;48.812;11.762;2022-12-07T08:12:04;0.30;99.90
22161;DHT22;49035;48.812;11.762;2022-12-07T08:14:30;0.40;99.90
22161;DHT22;49035;48.812;11.762;2022-12-07T08:16:56;0.40;99.90
22161;DHT22;49035;48.812;11.762;2022-12-07T08:19:22;0.50;99.90
22161;DHT22;49035;48.812;11.762;2022-12-07T08:21:47;0.60;99.90
22161;DHT22;49035;48.812;11.762;2022-12-07T08:24:13;0.80;99.90
22161;DHT22;49035;48.812;11.762;2022-12-07T08:26:40;1.00;99.90
22161;DHT22;49035;48.812;11.762;2022-12-07T08:29:05;1.20;99.90
22161;DHT22;49035;48.812;11.762;2022-12-07T08:31:31;1.40;99.90
22161;DHT22;49035;48.812;11.762;2022-12-07T08:33:57;1.70;99.90
22161;DHT22;49035;48.812;11.762;2022-12-07T08:36:22;2.00;99.90
22161;DHT22;49035;48.812;11.762;2022-12-07T08:38:48;2.20;99.90
22161;DHT22;49035;48.812;11.762;2022-12-07T08:41:14;2.40;99.90
22161;DHT22;49035;48.812;11.762;2022-12-07T08:43:40;2.60;99.90
22161;DHT22;49035;48.812;11.762;2022-12-07T08:46:10;2.80;99.90
22161;DHT22;49035;48.812;11.762;2022-12-07T08:51:35;3.00;99.90
22161;DHT22;49035;48.812;11.762;2022-12-07T08:54:04;3.10;99.90
22161;DHT22;49035;48.812;11.762;2022-12-07T08:56:30;3.20;99.90
22161;DHT22;49035;48.812;11.762;2022-12-07T08:58:57;3.30;99.90
22161;DHT22;49035;48.812;11.762;2022-12-07T09:01:23;3.40;99.90
22161;DHT22;49035;48.812;11.762;2022-12-07T09:03:48;3.60;99.90
22161;DHT22;49035;48.812;11.762;2022-12-07T09:06:14;3.60;99.90
22161;DHT22;49035;48.812;11.762;2022-12-07T09:08:43;3.60;99.90
22161;DHT22;49035;48.812;11.762;2022-12-07T09:11:10;3.70;99.90
22161;DHT22;49035;48.812;11.762;2022-12-07T09:13:36;3.70;99.90
22161;DHT22;49035;48.812;11.762;2022-12-07T09:16:02;3.60;99.90
22161;DHT22;49035;48.812;11.762;2022-12-07T09:18:27;3.70;99.90
22161;DHT22;49035;48.812;11.762;2022-12-07T09:20:53;3.80;99.90
22161;DHT22;49035;48.812;11.762;2022-12-07T09:23:19;3.80;99.90
22161;DHT22;49035;48.812;11.762;2022-12-07T09:25:45;3.60;99.90
22161;DHT22;49035;48.812;11.762;2022-12-07T09:28:10;3.50;99.90
22161;DHT22;49035;48.812;11.762;2022-12-07T09:30:36;3.70;99.90
22161;DHT22;49035;48.812;11.762;2022-12-07T09:33:01;3.70;99.90
22161;DHT22;49035;48.812;11.762;2022-12-07T09:35:27;3.70;99.90
22161;DHT22;49035;48.812;11.762;2022-12-07T09:37:53;3.70;99.90
22161;DHT22;49035;48.812;11.762;2022-12-07T09:40:20;3.80;99.90
22161;DHT22;49035;48.812;11.762;2022-12-07T09:42:50;4.00;99.90
22161;DHT22;49035;48.812;11.762;2022-12-07T09:45:25;4.00;99.90
22161;DHT22;49035;48.812;11.762;2022-12-07T09:47:52;4.20;99.90
22161;DHT22;49035;48.812;11.762;2022-12-07T09:50:27;4.20;99.90
22161;DHT22;49035;48.812;11.762;2022-12-07T09:53:00;4.40;99.90
22161;DHT22;49035;48.812;11.762;2022-12-07T09:55:30;4.60;99.90
22161;DHT22;49035;48.812;11.762;2022-12-07T09:57:57;4.80;99.90
22161;DHT22;49035;48.812;11.762;2022-12-07T10:00:24;4.90;99.90
22161;DHT22;49035;48.812;11.762;2022-12-07T10:03:01;4.80;99.90
22161;DHT22;49035;48.812;11.762;2022-12-07T10:05:34;4.90;99.90
22161;DHT22;49035;48.812;11.762;2022-12-07T10:08:02;5.10;99.90
22161;DHT22;49035;48.812;11.762;2022-12-07T10:10:33;5.20;99.90
22161;DHT22;49035;48.812;11.762;2022-12-07T10:13:07;5.10;99.90
22161;DHT22;49035;48.812;11.762;2022-12-07T10:18:30;5.30;99.90
22161;DHT22;49035;48.812;11.762;2022-12-07T10:23:34;5.30;99.90
22161;DHT22;49035;48.812;11.762;2022-12-07T10:26:20;5.30;99.90
22161;DHT22;49035;48.812;11.762;2022-12-07T10:28:50;4.90;99.90
22161;DHT22;49035;48.812;11.762;2022-12-07T10:31:21;4.90;99.90
22161;DHT22;49035;48.812;11.762;2022-12-07T10:36:37;4.70;99.90
22161;DHT22;49035;48.812;11.762;2022-12-07T10:39:15;4.80;99.90
22161;DHT22;49035;48.812;11.762;2022-12-07T10:41:54;4.60;99.90
22161;DHT22;49035;48.812;11.762;2022-12-07T10:44:30;4.70;99.90
22161;DHT22;49035;48.812;11.762;2022-12-07T10:50:01;4.40;99.90
22161;DHT22;49035;48.812;11.762;2022-12-07T10:55:22;4.50;99.90
22161;DHT22;49035;48.812;11.762;2022-12-07T11:03:31;4.80;99.90
22161;DHT22;49035;48.812;11.762;2022-12-07T11:06:21;4.90;99.90
22161;DHT22;49035;48.812;11.762;2022-12-07T11:11:48;4.80;99.90
22161;DHT22;49035;48.812;11.762;2022-12-07T11:17:18;4.80;99.90
22161;DHT22;49035;48.812;11.762;2022-12-07T11:33:56;4.10;99.90
22161;DHT22;49035;48.812;11.762;2022-12-07T11:36:51;4.00;99.90
22161;DHT22;49035;48.812;11.762;2022-12-07T11:41:50;4.20;99.90
22161;DHT22;49035;48.812;11.762;2022-12-07T11:47:18;4.30;99.90
22161;DHT22;49035;48.812;11.762;2022-12-07T11:49:54;4.40;99.90
22161;DHT22;49035;48.812;11.762;2022-12-07T11:52:36;4.50;99.90
22161;DHT22;49035;48.812;11.762;2022-12-07T11:58:11;4.60;99.90
22161;DHT22;49035;48.812;11.762;2022-12-07T12:00:40;4.80;99.90
22161;DHT22;49035;48.812;11.762;2022-12-07T12:03:16;4.90;99.90
22161;DHT22;49035;48.812;11.762;2022-12-07T12:05:44;4.90;99.90
22161;DHT22;49035;48.812;11.762;2022-12-07T12:08:16;5.00;99.90
22161;DHT22;49035;48.812;11.762;2022-12-07T12:11:16;5.10;99.90
22161;DHT22;49035;48.812;11.762;2022-12-07T12:19:06;5.10;99.90
22161;DHT22;49035;48.812;11.762;2022-12-07T12:21:36;5.10;99.90
22161;DHT22;49035;48.812;11.762;2022-12-07T12:24:09;5.10;99.90
22161;DHT22;49035;48.812;11.762;2022-12-07T12:26:38;5.20;99.90
22161;DHT22;49035;48.812;11.762;2022-12-07T12:29:21;5.20;99.90
22161;DHT22;49035;48.812;11.762;2022-12-07T12:32:12;5.20;99.90
22161;DHT22;49035;48.812;11.762;2022-12-07T12:34:58;5.00;99.90
22161;DHT22;49035;48.812;11.762;2022-12-07T12:42:56;5.00;99.90
22161;DHT22;49035;48.812;11.762;2022-12-07T12:45:24;4.90;99.90
22161;DHT22;49035;48.812;11.762;2022-12-07T12:48:28;4.90;99.90
22161;DHT22;49035;48.812;11.762;2022-12-07T12:59:42;4.30;99.90
22161;DHT22;49035;48.812;11.762;2022-12-07T13:15:42;4.80;99.90
22161;DHT22;49035;48.812;11.762;2022-12-07T13:26:15;4.90;99.90
22161;DHT22;49035;48.812;11.762;2022-12-07T13:29:05;5.00;99.90
22161;DHT22;49035;48.812;11.762;2022-12-07T13:34:35;4.90;99.90
22161;DHT22;49035;48.812;11.762;2022-12-07T13:39:33;4.90;99.90
22161;DHT22;49035;48.812;11.762;2022-12-07T13:42:08;4.90;99.90
22161;DHT22;49035;48.812;11.762;2022-12-07T13:44:40;4.90;99.90
22161;DHT22;49035;48.812;11.762;2022-12-07T13:47:17;4.80;99.90
22161;DHT22;49035;48.812;11.762;2022-12-07T13:49:55;4.80;99.90
22161;DHT22;49035;48.812;11.762;2022-12-07T13:52:26;4.80;99.90
22161;DHT22;49035;48.812;11.762;2022-12-07T13:57:34;4.60;99.90
22161;DHT22;49035;48.812;11.762;2022-12-07T14:00:05;4.60;99.90
22161;DHT22;49035;48.812;11.762;2022-12-07T14:02:33;4.50;99.90
22161;DHT22;49035;48.812;11.762;2022-12-07T14:05:14;4.50;99.90
22161;DHT22;49035;48.812;11.762;2022-12-07T14:10:40;4.30;99.90
22161;DHT22;49035;48.812;11.762;2022-12-07T14:15:54;4.30;99.90
22161;DHT22;49035;48.812;11.762;2022-12-07T14:18:39;4.30;99.90
22161;DHT22;49035;48.812;11.762;2022-12-07T14:21:29;4.20;99.90
22161;DHT22;49035;48.812;11.762;2022-12-07T14:26:37;4.20;99.90
22161;DHT22;49035;48.812;11.762;2022-12-07T14:31:45;4.10;99.90
22161;DHT22;49035;48.812;11.762;2022-12-07T14:34:13;4.10;99.90
22161;DHT22;49035;48.812;11.762;2022-12-07T14:36:39;4.00;99.90
22161;DHT22;49035;48.812;11.762;2022-12-07T14:39:05;4.00;99.90
22161;DHT22;49035;48.812;11.762;2022-12-07T14:41:30;4.00;99.90
22161;DHT22;49035;48.812;11.762;2022-12-07T14:44:14;3.90;99.90
22161;DHT22;49035;48.812;11.762;2022-12-07T14:46:40;3.80;99.90
22161;DHT22;49035;48.812;11.762;2022-12-07T14:49:05;3.80;99.90
22161;DHT22;49035;48.812;11.762;2022-12-07T14:51:32;3.70;99.90
22161;DHT22;49035;48.812;11.762;2022-12-07T14:53:58;3.70;99.90
22161;DHT22;49035;48.812;11.762;2022-12-07T14:56:25;3.60;99.90
22161;DHT22;49035;48.812;11.762;2022-12-07T14:58:51;3.60;99.90
22161;DHT22;49035;48.812;11.762;2022-12-07T15:01:16;3.60;99.90
22161;DHT22;49035;48.812;11.762;2022-12-07T15:03:42;3.50;99.90
22161;DHT22;49035;48.812;11.762;2022-12-07T15:06:10;3.40;99.90
22161;DHT22;49035;48.812;11.762;2022-12-07T15:08:38;3.40;99.90
22161;DHT22;49035;48.812;11.762;2022-12-07T15:11:03;3.40;99.90
22161;DHT22;49035;48.812;11.762;2022-12-07T15:13:29;3.40;99.90
22161;DHT22;49035;48.812;11.762;2022-12-07T15:16:18;3.30;99.90
22161;DHT22;49035;48.812;11.762;2022-12-07T15:18:44;3.30;99.90
22161;DHT22;49035;48.812;11.762;2022-12-07T15:21:14;3.30;99.90
22161;DHT22;49035;48.812;11.762;2022-12-07T15:23:41;3.30;99.90
22161;DHT22;49035;48.812;11.762;2022-12-07T15:26:07;3.30;99.90
22161;DHT22;49035;48.812;11.762;2022-12-07T15:28:33;3.20;99.90
22161;DHT22;49035;48.812;11.762;2022-12-07T15:30:59;3.20;99.90
22161;DHT22;49035;48.812;11.762;2022-12-07T15:33:24;3.10;99.90
22161;DHT22;49035;48.812;11.762;2022-12-07T15:35:50;3.10;99.90
22161;DHT22;49035;48.812;11.762;2022-12-07T15:38:16;3.10;99.90
22161;DHT22;49035;48.812;11.762;2022-12-07T15:40:41;3.00;99.90
22161;DHT22;49035;48.812;11.762;2022-12-07T15:43:09;3.00;99.90
22161;DHT22;49035;48.812;11.762;2022-12-07T15:45:54;3.00;99.90
22161;DHT22;49035;48.812;11.762;2022-12-07T15:48:20;3.00;99.90
22161;DHT22;49035;48.812;11.762;2022-12-07T15:50:46;2.90;99.90
22161;DHT22;49035;48.812;11.762;2022-12-07T15:53:11;2.90;99.90
22161;DHT22;49035;48.812;11.762;2022-12-07T15:55:40;2.90;99.90
22161;DHT22;49035;48.812;11.762;2022-12-07T15:58:06;2.90;99.90
22161;DHT22;49035;48.812;11.762;2022-12-07T16:00:32;2.80;99.90
22161;DHT22;49035;48.812;11.762;2022-12-07T16:02:57;2.80;99.90
22161;DHT22;49035;48.812;11.762;2022-12-07T16:05:23;2.80;99.90
22161;DHT22;49035;48.812;11.762;2022-12-07T16:07:49;2.80;99.90
22161;DHT22;49035;48.812;11.762;2022-12-07T16:10:16;2.70;99.90
22161;DHT22;49035;48.812;11.762;2022-12-07T16:12:41;2.60;99.90
22161;DHT22;49035;48.812;11.762;2022-12-07T16:15:10;2.60;99.90
22161;DHT22;49035;48.812;11.762;2022-12-07T16:17:36;2.60;99.90
22161;DHT22;49035;48.812;11.762;2022-12-07T16:20:03;2.60;99.90
22161;DHT22;49035;48.812;11.762;2022-12-07T16:22:28;2.60;99.90
22161;DHT22;49035;48.812;11.762;2022-12-07T16:24:55;2.60;99.90
22161;DHT22;49035;48.812;11.762;2022-12-07T16:27:20;2.50;99.90
22161;DHT22;49035;48.812;11.762;2022-12-07T16:29:48;2.50;99.90
22161;DHT22;49035;48.812;11.762;2022-12-07T16:32:14;2.50;99.90
22161;DHT22;49035;48.812;11.762;2022-12-07T16:34:39;2.50;99.90
22161;DHT22;49035;48.812;11.762;2022-12-07T16:37:05;2.40;99.90
22161;DHT22;49035;48.812;11.762;2022-12-07T16:39:32;2.40;99.90
22161;DHT22;49035;48.812;11.762;2022-12-07T16:41:58;2.40;99.90
22161;DHT22;49035;48.812;11.762;2022-12-07T16:44:23;2.40;99.90
22161;DHT22;49035;48.812;11.762;2022-12-07T16:46:49;2.40;99.90
22161;DHT22;49035;48.812;11.762;2022-12-07T16:49:15;2.40;99.90
22161;DHT22;49035;48.812;11.762;2022-12-07T16:51:41;2.30;99.90
22161;DHT22;49035;48.812;11.762;2022-12-07T16:54:11;2.40;99.90
22161;DHT22;49035;48.812;11.762;2022-12-07T16:56:37;2.30;99.90
22161;DHT22;49035;48.812;11.762;2022-12-07T16:59:03;2.20;99.90
22161;DHT22;49035;48.812;11.762;2022-12-07T17:01:29;2.20;99.90
22161;DHT22;49035;48.812;11.762;2022-12-07T17:03:57;2.20;99.90
22161;DHT22;49035;48.812;11.762;2022-12-07T17:06:25;2.20;99.90
22161;DHT22;49035;48.812;11.762;2022-12-07T17:08:52;2.10;99.90
22161;DHT22;49035;48.812;11.762;2022-12-07T17:11:20;2.10;99.90
22161;DHT22;49035;48.812;11.762;2022-12-07T17:13:46;2.10;99.90
22161;DHT22;49035;48.812;11.762;2022-12-07T17:16:31;2.00;99.90
22161;DHT22;49035;48.812;11.762;2022-12-07T17:18:57;2.00;99.90
22161;DHT22;49035;48.812;11.762;2022-12-07T17:21:23;2.00;99.90
22161;DHT22;49035;48.812;11.762;2022-12-07T17:23:49;2.00;99.90
22161;DHT22;49035;48.812;11.762;2022-12-07T17:26:21;1.90;99.90
22161;DHT22;49035;48.812;11.762;2022-12-07T17:28:47;2.00;99.90
22161;DHT22;49035;48.812;11.762;2022-12-07T17:31:15;2.00;99.90
22161;DHT22;49035;48.812;11.762;2022-12-07T17:33:41;2.00;99.90
22161;DHT22;49035;48.812;11.762;2022-12-07T17:36:11;2.00;99.90
22161;DHT22;49035;48.812;11.762;2022-12-07T17:38:38;2.10;99.90
22161;DHT22;49035;48.812;11.762;2022-12-07T17:41:12;2.00;99.90
22161;DHT22;49035;48.812;11.762;2022-12-07T17:43:38;2.10;99.90
22161;DHT22;49035;48.812;11.762;2022-12-07T17:46:10;2.10;99.90
22161;DHT22;49035;48.812;11.762;2022-12-07T17:48:35;2.10;99.90
22161;DHT22;49035;48.812;11.762;2022-12-07T17:51:02;2.20;99.90
22161;DHT22;49035;48.812;11.762;2022-12-07T17:53:50;2.20;99.90
22161;DHT22;49035;48.812;11.762;2022-12-07T17:56:16;2.10;99.90
22161;DHT22;49035;48.812;11.762;2022-12-07T17:58:42;2.20;99.90